Time;durP1;ratioP1;P1;durP2;ratioP2;P2;SDS_P1;SDS_P2;PMS_P1;PMS_P2;Temp;Humidity;BMP_temperature;BMP_pressure;BME280_temperature;BME280_humidity;BME280_pressure;Samples;Min_cycle;Max_cycle;Signal;HPM_P1;HPM_P2
2023/03/12 00:01:21;;;;;;;18.05;10.05;;;1.80;62.40;;;;;;4947870;28;116463;-79
2023/03/12 00:03:49;;;;;;;14.85;9.85;;;1.90;62.40;;;;;;4969105;28;114576;-79
2023/03/12 00:06:17;;;;;;;16.00;9.63;;;1.90;62.60;;;;;;4952035;28;114493;-78
2023/03/12 00:08:44;;;;;;;17.50;9.15;;;1.90;62.30;;;;;;4976018;28;114916;-78
2023/03/12 00:11:14;;;;;;;13.23;8.80;;;1.90;61.90;;;;;;4987124;28;114776;-78
2023/03/12 00:13:41;;;;;;;12.70;8.15;;;1.90;62.00;;;;;;4988298;28;114431;-79
2023/03/12 00:16:11;;;;;;;14.93;8.60;;;1.90;61.70;;;;;;4987139;28;114746;-78
2023/03/12 00:18:39;;;;;;;15.48;8.88;;;1.80;61.20;;;;;;4965436;28;115124;-79
2023/03/12 00:21:06;;;;;;;14.32;8.95;;;1.80;61.20;;;;;;4966900;28;114636;-78
2023/03/12 00:23:34;;;;;;;13.73;8.20;;;1.80;61.10;;;;;;4950225;28;114824;-79
2023/03/12 00:26:06;;;;;;;13.95;9.50;;;1.80;61.10;;;;;;4951786;28;114684;-79
2023/03/12 00:28:33;;;;;;;11.98;8.05;;;1.80;61.50;;;;;;4950824;28;115757;-79
2023/03/12 00:31:13;;;;;;;13.18;8.35;;;1.70;61.30;;;;;;4950429;28;115192;-79
2023/03/12 00:33:41;;;;;;;13.57;8.93;;;1.80;61.30;;;;;;4952922;28;115838;-79
2023/03/12 00:36:08;;;;;;;12.48;8.38;;;1.70;61.30;;;;;;4967490;28;114487;-78
2023/03/12 00:38:35;;;;;;;14.30;9.20;;;1.80;61.10;;;;;;4966161;28;116227;-78
2023/03/12 00:41:02;;;;;;;12.90;8.70;;;1.80;61.20;;;;;;4967707;28;115047;-79
2023/03/12 00:43:29;;;;;;;15.27;8.38;;;1.80;61.20;;;;;;4967374;28;114446;-78
2023/03/12 00:45:59;;;;;;;15.45;8.80;;;1.80;61.90;;;;;;4967596;28;115391;-78
2023/03/12 00:48:29;;;;;;;16.45;8.40;;;1.80;61.80;;;;;;4966276;28;115066;-79
2023/03/12 00:50:56;;;;;;;14.98;9.43;;;1.90;61.60;;;;;;4950104;28;117671;-79
2023/03/12 00:53:24;;;;;;;13.85;7.90;;;1.90;61.20;;;;;;4966821;28;114821;-79
2023/03/12 00:55:51;;;;;;;16.27;8.63;;;1.90;61.20;;;;;;4968383;28;114486;-78
2023/03/12 00:58:18;;;;;;;15.05;8.35;;;1.90;61.00;;;;;;4965488;28;115003;-78
2023/03/12 01:00:46;;;;;;;14.13;8.80;;;1.90;61.30;;;;;;4949903;28;114663;-78
2023/03/12 01:03:14;;;;;;;12.98;8.30;;;2.00;60.90;;;;;;4950613;28;116674;-79
2023/03/12 01:05:45;;;;;;;13.43;8.43;;;2.00;61.10;;;;;;4950599;28;114781;-79
2023/03/12 01:08:15;;;;;;;15.27;8.18;;;2.00;61.10;;;;;;4965525;28;115636;-79
2023/03/12 01:10:42;;;;;;;13.45;8.32;;;2.00;60.70;;;;;;4984911;28;115795;-79
2023/03/12 01:13:10;;;;;;;12.20;8.32;;;2.00;60.70;;;;;;4987726;28;114576;-78
2023/03/12 01:15:37;;;;;;;13.68;7.90;;;1.90;60.50;;;;;;4986134;28;114477;-78
2023/03/12 01:18:04;;;;;;;12.93;8.00;;;1.90;60.50;;;;;;4985193;28;115874;-78
2023/03/12 01:20:31;;;;;;;11.88;7.93;;;1.90;60.30;;;;;;4977768;28;118453;-79
2023/03/12 01:22:59;;;;;;;13.15;8.32;;;1.90;60.50;;;;;;4932660;28;114519;-79
2023/03/12 01:25:26;;;;;;;13.05;8.75;;;1.90;60.50;;;;;;4968174;28;114823;-79
2023/03/12 01:27:53;;;;;;;13.20;8.05;;;2.00;60.40;;;;;;4965563;28;115381;-78
2023/03/12 01:30:20;;;;;;;13.32;8.30;;;2.00;60.30;;;;;;4965395;28;116572;-79
2023/03/12 01:32:48;;;;;;;12.75;8.23;;;2.00;60.30;;;;;;4966274;28;114441;-79
2023/03/12 01:35:15;;;;;;;11.88;8.30;;;2.10;60.20;;;;;;4966704;28;114486;-78
2023/03/12 01:37:42;;;;;;;13.20;8.77;;;2.10;60.10;;;;;;4966628;28;115123;-79
2023/03/12 01:40:18;;;;;;;13.75;8.00;;;2.10;60.20;;;;;;4960735;28;117208;-79
2023/03/12 01:42:56;;;;;;;12.00;8.38;;;2.00;60.50;;;;;;4969380;28;115141;-79
2023/03/12 01:46:21;;;;;;;12.07;8.02;;;2.00;60.00;;;;;;4969863;28;114406;-79
2023/03/12 01:49:24;;;;;;;11.63;8.37;;;2.00;60.50;;;;;;4980542;28;115155;-79
2023/03/12 01:51:55;;;;;;;12.98;7.65;;;1.90;60.20;;;;;;4948889;28;114662;-79
2023/03/12 01:54:37;;;;;;;13.52;7.95;;;1.80;60.40;;;;;;4964994;28;114513;-78
2023/03/12 01:57:08;;;;;;;13.30;8.02;;;1.90;60.20;;;;;;4951169;28;114621;-78
2023/03/12 01:59:42;;;;;;;13.35;8.23;;;1.80;59.90;;;;;;4965180;28;115217;-79
2023/03/12 02:02:10;;;;;;;13.73;7.82;;;1.80;60.00;;;;;;4949192;28;114737;-79
2023/03/12 02:04:37;;;;;;;13.05;8.30;;;1.70;60.40;;;;;;4916031;28;115242;-78
2023/03/12 02:07:10;;;;;;;13.20;8.43;;;1.70;60.30;;;;;;4933936;28;114489;-79
2023/03/12 02:09:43;;;;;;;12.60;8.25;;;1.70;60.30;;;;;;4931158;28;115376;-79
2023/03/12 02:12:10;;;;;;;12.00;8.20;;;1.70;60.30;;;;;;4931694;28;116119;-79
2023/03/12 02:14:37;;;;;;;12.70;8.20;;;1.60;60.60;;;;;;4969425;28;114565;-78
2023/03/12 02:17:05;;;;;;;14.35;9.02;;;1.70;60.50;;;;;;4986019;28;114444;-79
2023/03/12 02:20:06;;;;;;;13.85;9.07;;;1.60;59.70;;;;;;4962029;28;117284;-79
2023/03/12 02:22:35;;;;;;;13.38;8.73;;;1.50;60.00;;;;;;4948636;28;116169;-79
2023/03/12 02:25:34;;;;;;;13.90;8.98;;;1.50;60.40;;;;;;4970077;28;114452;-78
2023/03/12 02:28:04;;;;;;;12.45;8.00;;;1.50;59.80;;;;;;4968668;28;114940;-79
2023/03/12 02:30:32;;;;;;;12.70;8.02;;;1.30;60.10;;;;;;4967648;28;115116;-78
2023/03/12 02:33:01;;;;;;;13.85;8.95;;;1.30;59.90;;;;;;4967597;28;114685;-78
2023/03/12 02:35:28;;;;;;;15.20;9.85;;;1.30;59.90;;;;;;4952148;28;114557;-78
2023/03/12 02:37:55;;;;;;;15.63;9.82;;;1.20;60.30;;;;;;4968353;28;114472;-78
2023/03/12 02:40:35;;;;;;;19.13;10.43;;;1.20;60.40;;;;;;4951114;28;115731;-78
2023/03/12 02:43:04;;;;;;;17.38;10.25;;;1.20;60.40;;;;;;4967247;28;115750;-78
2023/03/12 02:45:32;;;;;;;15.25;10.15;;;1.10;60.20;;;;;;4967979;28;114475;-78
2023/03/12 02:48:00;;;;;;;15.55;9.68;;;1.10;60.60;;;;;;4968045;28;114532;-78
2023/03/12 02:50:27;;;;;;;14.80;10.00;;;1.00;61.00;;;;;;4983504;28;115164;-78
2023/03/12 02:52:54;;;;;;;16.67;10.02;;;1.00;61.10;;;;;;4982744;28;114689;-78
2023/03/12 02:55:22;;;;;;;17.48;10.25;;;0.90;61.00;;;;;;4949842;28;116908;-78
2023/03/12 02:57:49;;;;;;;17.20;10.43;;;1.00;61.00;;;;;;4965532;28;114504;-78
2023/03/12 03:00:17;;;;;;;18.10;10.73;;;0.90;60.90;;;;;;4946848;28;115761;-78
2023/03/12 03:02:48;;;;;;;17.23;10.00;;;0.90;60.70;;;;;;4947491;28;115247;-78
2023/03/12 03:05:16;;;;;;;16.55;10.20;;;0.80;60.60;;;;;;4948139;28;114694;-78
2023/03/12 03:07:43;;;;;;;19.52;10.18;;;0.70;60.50;;;;;;4964224;28;114600;-78
2023/03/12 03:10:10;;;;;;;19.10;10.57;;;0.70;60.60;;;;;;4946546;28;115403;-78
2023/03/12 03:12:38;;;;;;;15.32;9.73;;;0.70;60.70;;;;;;4963059;28;114697;-78
2023/03/12 03:15:07;;;;;;;18.60;10.18;;;0.70;61.30;;;;;;4948279;28;114620;-78
2023/03/12 03:17:35;;;;;;;17.83;10.75;;;0.70;61.30;;;;;;4931812;28;116327;-78
2023/03/12 03:20:06;;;;;;;18.92;11.52;;;0.60;61.20;;;;;;4962702;28;115740;-78
2023/03/12 03:22:33;;;;;;;17.95;11.10;;;0.60;61.60;;;;;;4947255;28;114853;-78
2023/03/12 03:25:00;;;;;;;17.92;10.73;;;0.60;61.40;;;;;;4964029;28;114575;-78
2023/03/12 03:27:27;;;;;;;18.65;11.13;;;0.60;61.60;;;;;;4947890;28;114705;-78
2023/03/12 03:29:55;;;;;;;15.38;10.10;;;0.50;61.90;;;;;;4962770;28;115131;-78
2023/03/12 03:32:22;;;;;;;15.45;10.13;;;0.50;62.30;;;;;;4964978;28;114661;-78
2023/03/12 03:34:49;;;;;;;16.45;10.50;;;0.50;62.30;;;;;;4948807;28;114662;-78
2023/03/12 03:37:20;;;;;;;21.50;13.07;;;0.60;62.20;;;;;;4965289;28;114561;-78
2023/03/12 03:39:47;;;;;;;19.05;12.05;;;0.50;61.80;;;;;;4964063;28;115419;-78
2023/03/12 03:42:14;;;;;;;20.42;11.07;;;0.50;62.00;;;;;;4948032;28;114679;-78
2023/03/12 03:44:43;;;;;;;21.13;12.32;;;0.50;62.50;;;;;;4949112;28;119765;-78
2023/03/12 03:47:10;;;;;;;21.92;12.48;;;0.50;62.50;;;;;;4965189;28;114763;-78
2023/03/12 03:49:37;;;;;;;19.98;12.45;;;0.40;62.00;;;;;;4948030;28;115136;-78
2023/03/12 03:52:05;;;;;;;22.98;13.38;;;0.40;61.80;;;;;;4947695;28;114955;-78
2023/03/12 03:54:34;;;;;;;20.10;12.27;;;0.40;61.90;;;;;;4948646;28;114449;-79
2023/03/12 03:57:03;;;;;;;21.95;12.93;;;0.40;62.00;;;;;;4965504;28;114435;-78
2023/03/12 03:59:31;;;;;;;20.90;12.35;;;0.30;62.20;;;;;;4963913;28;115166;-78
2023/03/12 04:01:58;;;;;;;21.13;13.00;;;0.30;61.80;;;;;;4963563;28;114712;-78
2023/03/12 04:04:25;;;;;;;19.33;11.32;;;0.20;61.70;;;;;;4966025;28;114918;-78
2023/03/12 04:06:53;;;;;;;20.20;12.00;;;0.20;61.90;;;;;;4965125;28;117179;-78
2023/03/12 04:09:21;;;;;;;17.98;11.35;;;0.10;62.40;;;;;;4946766;28;115102;-78
2023/03/12 04:11:48;;;;;;;19.65;12.27;;;0.10;62.20;;;;;;4963825;28;114822;-78
2023/03/12 04:14:15;;;;;;;18.33;11.10;;;0.10;62.20;;;;;;4964813;28;114498;-78
2023/03/12 04:16:44;;;;;;;17.83;11.23;;;0.10;62.30;;;;;;4966812;28;117556;-78
2023/03/12 04:19:14;;;;;;;16.45;10.32;;;0.10;62.20;;;;;;4983199;28;115249;-78
2023/03/12 04:21:42;;;;;;;15.35;9.75;;;0.10;62.70;;;;;;4983379;28;114657;-78
2023/03/12 04:24:15;;;;;;;15.20;9.85;;;0.10;62.30;;;;;;4984244;28;114253;-78
2023/03/12 04:26:43;;;;;;;16.42;9.85;;;0.10;62.00;;;;;;4955749;28;116939;-78
2023/03/12 04:29:11;;;;;;;19.20;10.07;;;0.00;62.00;;;;;;4947703;28;115123;-78
2023/03/12 04:31:39;;;;;;;17.20;10.18;;;0.00;62.20;;;;;;4947224;28;114772;-78
2023/03/12 04:34:06;;;;;;;17.20;9.93;;;-0.10;62.10;;;;;;4946496;28;114511;-77
2023/03/12 04:36:34;;;;;;;15.82;10.25;;;-0.10;61.80;;;;;;4919691;28;114521;-78
2023/03/12 04:39:05;;;;;;;16.77;9.63;;;-0.10;61.90;;;;;;4934595;28;115096;-77
2023/03/12 04:41:34;;;;;;;17.60;10.18;;;-0.10;62.10;;;;;;4966942;28;114632;-78
2023/03/12 04:44:06;;;;;;;18.35;11.43;;;-0.10;61.90;;;;;;4952150;28;114527;-78
2023/03/12 04:46:34;;;;;;;17.38;10.73;;;-0.10;61.70;;;;;;4967353;28;114228;-78
2023/03/12 04:49:03;;;;;;;18.10;11.70;;;-0.20;62.20;;;;;;4966541;28;115005;-78
2023/03/12 04:51:33;;;;;;;16.05;9.50;;;-0.20;62.00;;;;;;4966402;28;114927;-78
2023/03/12 04:54:02;;;;;;;17.75;10.13;;;-0.20;62.30;;;;;;4982442;28;116904;-78
2023/03/12 04:56:29;;;;;;;16.58;9.88;;;-0.20;62.10;;;;;;4970830;28;114899;-77
2023/03/12 04:58:57;;;;;;;16.20;9.27;;;-0.20;61.90;;;;;;4986532;28;115685;-78
2023/03/12 05:01:30;;;;;;;16.70;9.15;;;-0.30;62.30;;;;;;4986541;28;114558;-78
2023/03/12 05:03:57;;;;;;;15.48;9.93;;;-0.20;62.20;;;;;;4971040;28;114341;-78
2023/03/12 05:06:25;;;;;;;15.10;8.70;;;-0.30;61.80;;;;;;4987168;28;114456;-78
2023/03/12 05:08:52;;;;;;;16.88;9.05;;;-0.30;62.00;;;;;;4969733;28;115350;-77
2023/03/12 05:11:21;;;;;;;15.10;10.15;;;-0.30;62.30;;;;;;4969070;28;115283;-77
2023/03/12 05:13:48;;;;;;;14.90;9.00;;;-0.30;62.00;;;;;;4986977;28;114498;-79
2023/03/12 05:16:16;;;;;;;14.30;9.18;;;-0.30;62.30;;;;;;4987352;28;114558;-78
2023/03/12 05:18:43;;;;;;;16.00;9.50;;;-0.30;62.00;;;;;;4985857;28;115071;-79
2023/03/12 05:21:16;;;;;;;14.15;8.98;;;-0.30;62.00;;;;;;4986175;28;114686;-79
2023/03/12 05:23:44;;;;;;;15.18;8.93;;;-0.30;62.40;;;;;;4970443;28;115044;-79
2023/03/12 05:26:26;;;;;;;15.13;8.98;;;-0.30;62.40;;;;;;4986750;28;114729;-80
2023/03/12 05:29:00;;;;;;;14.90;9.48;;;-0.30;62.00;;;;;;4970453;28;115194;-78
2023/03/12 05:31:31;;;;;;;16.58;9.25;;;-0.30;62.00;;;;;;4969097;28;114720;-78
2023/03/12 05:33:59;;;;;;;14.82;9.40;;;-0.20;62.10;;;;;;4970543;28;114356;-78
2023/03/12 05:36:26;;;;;;;15.77;8.82;;;-0.10;62.20;;;;;;4987882;28;114373;-78
2023/03/12 05:38:53;;;;;;;15.00;9.30;;;0.00;62.30;;;;;;4944207;28;115827;-79
2023/03/12 05:41:24;;;;;;;15.23;9.75;;;0.10;62.20;;;;;;4933378;28;118805;-78
2023/03/12 05:43:55;;;;;;;14.15;8.77;;;0.30;62.10;;;;;;4951276;28;114388;-79
2023/03/12 05:46:23;;;;;;;17.02;9.20;;;0.50;61.70;;;;;;4950795;28;114778;-78
2023/03/12 05:48:51;;;;;;;14.70;8.27;;;0.70;61.50;;;;;;4949777;28;115861;-78
2023/03/12 05:51:18;;;;;;;13.65;8.77;;;0.90;61.00;;;;;;4949534;28;115325;-78
2023/03/12 05:53:46;;;;;;;13.98;9.27;;;1.10;61.00;;;;;;4950446;28;114615;-78
2023/03/12 05:56:15;;;;;;;13.52;8.75;;;1.30;60.40;;;;;;4966542;28;114559;-79
2023/03/12 05:58:42;;;;;;;13.27;8.43;;;1.50;60.20;;;;;;4966818;28;115218;-79
2023/03/12 06:01:19;;;;;;;15.15;9.02;;;1.60;59.90;;;;;;4965600;28;114879;-78
2023/03/12 06:03:46;;;;;;;14.82;8.73;;;1.80;59.50;;;;;;4933329;28;114475;-78
2023/03/12 06:06:14;;;;;;;14.50;9.43;;;2.00;59.10;;;;;;4918183;28;114594;-78
2023/03/12 06:08:44;;;;;;;19.20;10.82;;;2.10;58.70;;;;;;4949063;28;115471;-79
2023/03/12 06:11:11;;;;;;;16.75;10.18;;;2.30;57.90;;;;;;4965749;28;114658;-79
2023/03/12 06:13:39;;;;;;;17.77;11.13;;;2.50;57.70;;;;;;4950140;28;114738;-78
2023/03/12 06:16:08;;;;;;;16.90;10.52;;;2.60;57.10;;;;;;4950539;28;114750;-77
2023/03/12 06:18:36;;;;;;;17.33;10.88;;;2.70;56.70;;;;;;4949353;28;115151;-78
2023/03/12 06:21:25;;;;;;;20.33;11.60;;;2.90;56.50;;;;;;4948856;28;114734;-78
2023/03/12 06:23:53;;;;;;;20.88;11.05;;;3.10;55.30;;;;;;4958792;28;114435;-78
2023/03/12 06:26:25;;;;;;;17.00;11.27;;;3.10;55.90;;;;;;4947516;28;114514;-78
2023/03/12 06:28:52;;;;;;;19.63;12.40;;;3.20;55.90;;;;;;4965244;28;115302;-78
2023/03/12 06:31:20;;;;;;;20.88;11.35;;;3.40;55.00;;;;;;4965181;28;114718;-79
2023/03/12 06:33:47;;;;;;;19.75;12.05;;;3.40;54.90;;;;;;4965758;28;115039;-78
2023/03/12 06:36:14;;;;;;;19.13;11.13;;;3.60;54.50;;;;;;4966272;28;114486;-78
2023/03/12 06:38:42;;;;;;;21.35;12.15;;;3.70;54.10;;;;;;4949028;28;115561;-80
2023/03/12 06:41:15;;;;;;;17.98;10.93;;;3.80;53.80;;;;;;4966035;28;115810;-80
2023/03/12 06:43:43;;;;;;;15.13;10.38;;;3.90;53.70;;;;;;4966199;28;114445;-79
2023/03/12 06:46:15;;;;;;;18.67;10.52;;;4.00;53.70;;;;;;4966866;28;116661;-78
2023/03/12 06:48:45;;;;;;;14.25;10.00;;;4.10;52.90;;;;;;4966128;28;115042;-78
2023/03/12 06:51:13;;;;;;;17.75;11.10;;;4.20;52.90;;;;;;4964412;28;114696;-78
2023/03/12 06:53:41;;;;;;;19.30;10.18;;;4.20;52.50;;;;;;4965702;28;114787;-79
2023/03/12 06:56:09;;;;;;;14.60;9.65;;;4.40;52.10;;;;;;4965924;28;114725;-79
2023/03/12 06:58:36;;;;;;;17.63;10.20;;;4.50;51.70;;;;;;4965893;28;117303;-79
2023/03/12 07:01:04;;;;;;;15.25;10.25;;;4.50;51.60;;;;;;4964418;28;114747;-79
2023/03/12 07:03:31;;;;;;;15.65;10.55;;;4.60;52.10;;;;;;4966716;28;114847;-79
2023/03/12 07:05:58;;;;;;;17.20;9.85;;;4.70;51.60;;;;;;4948953;28;114423;-79
2023/03/12 07:08:28;;;;;;;17.13;9.52;;;4.70;51.10;;;;;;4963700;28;116919;-79
2023/03/12 07:10:57;;;;;;;12.82;8.23;;;4.70;50.20;;;;;;4964743;28;114856;-79
2023/03/12 07:13:27;;;;;;;13.10;7.88;;;4.70;49.20;;;;;;4969514;28;114955;-79
2023/03/12 07:15:54;;;;;;;11.95;8.50;;;4.60;49.60;;;;;;4966898;28;116246;-80
2023/03/12 07:18:22;;;;;;;12.65;7.35;;;4.60;49.90;;;;;;4964242;28;116926;-79
2023/03/12 07:20:49;;;;;;;11.07;7.22;;;4.70;49.70;;;;;;4965611;28;114907;-79
2023/03/12 07:23:16;;;;;;;12.13;7.53;;;4.80;49.60;;;;;;4965673;28;115000;-79
2023/03/12 07:25:44;;;;;;;12.57;7.88;;;4.90;49.40;;;;;;4965674;28;114485;-79
2023/03/12 07:28:11;;;;;;;11.32;7.35;;;5.10;49.10;;;;;;4973859;28;116936;-79
2023/03/12 07:30:39;;;;;;;10.43;7.20;;;5.20;48.50;;;;;;4984170;28;114636;-79
2023/03/12 07:33:09;;;;;;;10.07;6.60;;;5.20;48.40;;;;;;4968378;28;114589;-79
2023/03/12 07:35:39;;;;;;;11.10;6.63;;;5.20;47.20;;;;;;4953774;28;114460;-79
2023/03/12 07:38:07;;;;;;;7.70;5.97;;;5.10;46.90;;;;;;4984368;28;115348;-78
2023/03/12 07:40:35;;;;;;;9.30;6.28;;;5.10;46.80;;;;;;4984834;28;114669;-79
2023/03/12 07:43:04;;;;;;;9.60;6.32;;;5.10;46.60;;;;;;4984718;28;114638;-79
2023/03/12 07:45:31;;;;;;;9.20;6.05;;;5.10;46.80;;;;;;4984660;28;114352;-78
2023/03/12 07:47:59;;;;;;;9.20;6.10;;;5.00;46.30;;;;;;4975612;28;116926;-79
2023/03/12 07:50:26;;;;;;;8.23;5.68;;;4.80;46.10;;;;;;4964196;28;114894;-79
2023/03/12 07:52:53;;;;;;;8.73;5.85;;;4.70;46.20;;;;;;4961890;28;114192;-79
2023/03/12 07:55:20;;;;;;;10.48;6.30;;;4.60;46.70;;;;;;4966187;28;114487;-79
2023/03/12 07:57:48;;;;;;;9.63;6.82;;;4.70;46.70;;;;;;4965153;28;115097;-79
2023/03/12 08:00:15;;;;;;;9.40;6.28;;;4.80;46.60;;;;;;4963034;28;115186;-79
2023/03/12 08:02:43;;;;;;;9.90;6.20;;;4.90;46.30;;;;;;4965849;28;118374;-80
2023/03/12 08:05:10;;;;;;;10.10;6.93;;;4.90;46.40;;;;;;4982764;28;114486;-79
2023/03/12 08:07:38;;;;;;;9.02;6.07;;;5.00;46.10;;;;;;4985304;28;115219;-80
2023/03/12 08:10:06;;;;;;;8.32;6.18;;;5.00;45.70;;;;;;4987617;28;114656;-79
2023/03/12 08:12:34;;;;;;;10.82;6.72;;;4.80;45.50;;;;;;4987741;28;114539;-80
2023/03/12 08:15:01;;;;;;;9.40;6.80;;;4.70;46.20;;;;;;4989175;28;114605;-79
2023/03/12 08:17:28;;;;;;;9.55;6.68;;;4.70;46.40;;;;;;4970244;28;117245;-80
2023/03/12 08:19:55;;;;;;;10.10;6.63;;;4.70;46.60;;;;;;4970266;28;117306;-79
2023/03/12 08:22:22;;;;;;;9.02;6.93;;;4.70;46.50;;;;;;4987245;28;114451;-80
2023/03/12 08:24:50;;;;;;;11.07;6.60;;;4.90;46.40;;;;;;4988638;28;114591;-79
2023/03/12 08:27:20;;;;;;;11.65;7.18;;;5.00;46.70;;;;;;4987897;28;115140;-79
2023/03/12 08:29:47;;;;;;;9.68;6.50;;;5.20;46.00;;;;;;4969874;28;116468;-79
2023/03/12 08:32:14;;;;;;;10.27;6.85;;;5.20;45.80;;;;;;4988501;28;114612;-80
2023/03/12 08:34:42;;;;;;;9.93;6.85;;;5.20;45.50;;;;;;4988708;28;114674;-80
2023/03/12 08:37:09;;;;;;;10.20;6.90;;;5.20;45.80;;;;;;4987653;28;115188;-80
2023/03/12 08:39:36;;;;;;;8.18;6.00;;;5.20;46.20;;;;;;4963884;28;114571;-80
2023/03/12 08:42:04;;;;;;;8.90;5.93;;;5.40;45.80;;;;;;4968540;28;114385;-80
2023/03/12 08:44:34;;;;;;;8.20;6.25;;;5.40;45.20;;;;;;4967650;28;114591;-80
2023/03/12 08:47:01;;;;;;;8.20;5.50;;;5.40;45.10;;;;;;4983374;28;116691;-80
2023/03/12 08:49:30;;;;;;;8.75;5.28;;;5.50;44.50;;;;;;4969560;28;115245;-79
2023/03/12 08:51:57;;;;;;;8.70;6.07;;;5.50;44.70;;;;;;4988103;28;114480;-80
2023/03/12 08:54:28;;;;;;;9.27;5.82;;;5.60;44.90;;;;;;4988248;28;114466;-79
2023/03/12 08:56:56;;;;;;;8.68;5.82;;;5.70;45.00;;;;;;4986074;28;117660;-79
2023/03/12 08:59:34;;;;;;;7.38;5.15;;;5.70;45.40;;;;;;4986986;28;114719;-79
2023/03/12 09:02:04;;;;;;;8.40;5.75;;;5.80;44.90;;;;;;4970365;28;114776;-79
2023/03/12 09:04:34;;;;;;;7.60;5.60;;;5.90;45.10;;;;;;4988108;28;116312;-81
2023/03/12 09:07:01;;;;;;;7.13;5.00;;;6.10;44.80;;;;;;4985383;28;116453;-79
2023/03/12 09:09:28;;;;;;;9.38;5.78;;;6.10;44.50;;;;;;4986759;28;114641;-80
2023/03/12 09:11:59;;;;;;;9.10;6.13;;;6.10;44.40;;;;;;4986897;28;114734;-80
2023/03/12 09:14:26;;;;;;;10.23;6.60;;;6.20;44.30;;;;;;4986963;28;114459;-79
2023/03/12 09:17:13;;;;;;;8.52;5.82;;;6.10;44.20;;;;;;4986901;28;115011;-80
2023/03/12 09:19:40;;;;;;;7.32;4.72;;;6.10;44.00;;;;;;4986769;28;115650;-80
2023/03/12 09:22:07;;;;;;;8.50;5.28;;;6.10;43.50;;;;;;4951012;28;114488;-81
2023/03/12 09:24:35;;;;;;;7.93;5.00;;;6.00;43.40;;;;;;4976931;28;114811;-81
2023/03/12 09:27:03;;;;;;;7.60;5.50;;;6.00;43.70;;;;;;4987046;28;115130;-80
2023/03/12 09:29:31;;;;;;;8.57;4.85;;;6.10;44.10;;;;;;4985387;28;116069;-79
2023/03/12 09:31:58;;;;;;;7.07;4.85;;;6.10;43.90;;;;;;4986585;28;114711;-80
2023/03/12 09:34:25;;;;;;;6.57;4.50;;;6.20;43.60;;;;;;4987699;28;114385;-80
2023/03/12 09:36:52;;;;;;;7.97;4.63;;;6.20;43.40;;;;;;4985226;28;115239;-80
2023/03/12 09:39:21;;;;;;;8.82;5.28;;;6.30;43.50;;;;;;4976961;28;116758;-80
2023/03/12 09:41:48;;;;;;;6.28;4.15;;;6.40;42.70;;;;;;4966435;28;114754;-80
2023/03/12 09:44:42;;;;;;;5.60;3.50;;;6.50;41.80;;;;;;4967828;28;114434;-81
2023/03/12 09:47:34;;;;;;;9.43;4.63;;;6.60;41.90;;;;;;4965564;28;115029;-80
2023/03/12 09:50:32;;;;;;;5.40;3.10;;;6.50;41.60;;;;;;4965245;28;114828;-79
2023/03/12 09:53:16;;;;;;;4.95;2.78;;;6.60;41.30;;;;;;4953506;28;114685;-81
2023/03/12 09:55:46;;;;;;;6.18;3.03;;;6.60;41.10;;;;;;4965178;28;114523;-81
2023/03/12 09:58:23;;;;;;;5.32;3.08;;;6.70;40.90;;;;;;4965229;28;114991;-80
2023/03/12 10:00:54;;;;;;;5.68;2.83;;;6.70;41.00;;;;;;4965213;28;115135;-80
2023/03/12 10:03:54;;;;;;;5.15;3.10;;;6.70;41.00;;;;;;4966052;28;119719;-80
2023/03/12 10:06:24;;;;;;;4.10;2.67;;;6.80;40.70;;;;;;4951319;28;114537;-80
2023/03/12 10:09:57;;;;;;;5.93;3.00;;;6.80;40.80;;;;;;4965031;28;115046;-79
2023/03/12 10:12:57;;;;;;;6.95;3.33;;;6.90;40.90;;;;;;4964266;28;114792;-79
2023/03/12 10:16:15;;;;;;;5.32;3.40;;;7.00;40.50;;;;;;4965057;28;114560;-80
2023/03/12 10:18:45;;;;;;;5.80;2.75;;;6.90;40.20;;;;;;4975638;28;116342;-80
2023/03/12 10:21:44;;;;;;;5.40;3.05;;;6.90;40.70;;;;;;4986164;28;115008;-80
2023/03/12 10:24:51;;;;;;;5.07;2.63;;;6.90;40.40;;;;;;4968368;28;114647;-81
2023/03/12 10:27:28;;;;;;;6.50;3.67;;;7.00;40.10;;;;;;4982905;28;118297;-80
2023/03/12 10:29:55;;;;;;;4.90;3.00;;;6.90;41.10;;;;;;4985361;28;118764;-81
2023/03/12 10:32:45;;;;;;;6.97;3.90;;;7.00;40.90;;;;;;4967974;28;115301;-80
2023/03/12 10:35:18;;;;;;;5.35;3.38;;;7.10;40.70;;;;;;4968383;28;115183;-80
2023/03/12 10:38:03;;;;;;;5.55;3.33;;;7.10;40.90;;;;;;4987068;28;114454;-80
2023/03/12 10:40:33;;;;;;;5.45;3.10;;;7.10;40.40;;;;;;4965224;28;114428;-80
2023/03/12 10:43:00;;;;;;;6.22;2.60;;;7.10;40.80;;;;;;4964354;28;117483;-80
2023/03/12 10:46:00;;;;;;;4.30;2.35;;;7.10;40.50;;;;;;4966044;28;115754;-81
2023/03/12 10:48:27;;;;;;;6.10;2.45;;;7.20;40.10;;;;;;4952424;28;114659;-80
2023/03/12 10:51:09;;;;;;;5.50;2.53;;;7.10;40.10;;;;;;4966087;28;114470;-80
2023/03/12 10:53:46;;;;;;;6.78;2.60;;;7.20;39.50;;;;;;4964982;28;115155;-80
2023/03/12 10:56:16;;;;;;;4.50;2.22;;;7.20;40.50;;;;;;4948711;28;114834;-80
2023/03/12 10:58:49;;;;;;;5.47;2.50;;;7.30;40.40;;;;;;4965763;28;114476;-80
2023/03/12 11:01:29;;;;;;;5.40;2.55;;;7.40;39.60;;;;;;4966067;28;114471;-80
2023/03/12 11:04:20;;;;;;;4.45;2.20;;;7.40;39.70;;;;;;4966085;28;114855;-80
2023/03/12 11:07:09;;;;;;;6.75;2.67;;;7.40;38.60;;;;;;4964880;28;114771;-80
2023/03/12 11:09:36;;;;;;;4.72;2.28;;;7.30;38.70;;;;;;4976979;28;114818;-80
2023/03/12 11:12:30;;;;;;;4.13;2.00;;;7.20;39.20;;;;;;4965296;28;114398;-80
2023/03/12 11:14:57;;;;;;;3.70;2.00;;;7.20;38.50;;;;;;4933763;28;118024;-80
2023/03/12 11:17:28;;;;;;;4.53;1.77;;;7.20;39.00;;;;;;4960213;28;114713;-80
2023/03/12 11:19:55;;;;;;;5.32;2.60;;;7.20;38.30;;;;;;4966765;28;118343;-80
2023/03/12 11:22:33;;;;;;;4.97;2.15;;;7.10;39.00;;;;;;4966854;28;114444;-79
2023/03/12 11:25:04;;;;;;;7.55;3.42;;;7.20;38.40;;;;;;4964474;28;115146;-80
2023/03/12 11:27:41;;;;;;;4.85;2.75;;;7.20;39.20;;;;;;4966370;28;114763;-80
2023/03/12 11:30:15;;;;;;;4.78;2.40;;;7.20;38.20;;;;;;4967175;28;114364;-79
2023/03/12 11:32:48;;;;;;;4.80;2.50;;;7.20;38.60;;;;;;4948777;28;114631;-79
2023/03/12 11:35:19;;;;;;;6.90;2.63;;;7.20;39.00;;;;;;4964936;28;114999;-80
2023/03/12 11:38:07;;;;;;;4.03;2.33;;;7.20;38.40;;;;;;4964920;28;114964;-79
2023/03/12 11:41:04;;;;;;;3.95;2.58;;;7.20;38.60;;;;;;4965809;28;114626;-80
2023/03/12 11:43:50;;;;;;;5.03;2.95;;;7.20;37.70;;;;;;4969068;28;114489;-80
2023/03/12 11:46:50;;;;;;;4.38;2.33;;;7.20;37.70;;;;;;4967767;28;115434;-81
2023/03/12 11:49:42;;;;;;;4.10;2.50;;;7.10;38.80;;;;;;4967396;28;115181;-81
2023/03/12 11:52:47;;;;;;;6.55;2.20;;;7.00;38.50;;;;;;4953361;28;114446;-80
2023/03/12 11:55:42;;;;;;;5.38;2.20;;;7.10;38.80;;;;;;4968877;28;114847;-81
2023/03/12 11:58:37;;;;;;;5.75;2.35;;;7.10;38.40;;;;;;4966973;28;117755;-80
2023/03/12 12:01:41;;;;;;;4.28;2.10;;;7.20;38.30;;;;;;4967325;28;117245;-81
2023/03/12 12:04:45;;;;;;;3.45;1.80;;;7.20;38.10;;;;;;4940087;28;114456;-80
2023/03/12 12:08:15;;;;;;;5.00;1.90;;;7.20;37.90;;;;;;4968298;28;114504;-80
2023/03/12 12:11:49;;;;;;;5.53;3.60;;;7.20;38.20;;;;;;4960992;28;115278;-80
2023/03/12 12:14:42;;;;;;;4.13;2.30;;;7.20;37.90;;;;;;4926518;28;116151;-80
2023/03/12 12:18:09;;;;;;;4.30;2.70;;;7.20;37.60;;;;;;4916955;28;114663;-81
2023/03/12 12:20:50;;;;;;;7.32;4.30;;;7.30;37.10;;;;;;4968975;28;114601;-80
2023/03/12 12:24:08;;;;;;;6.93;4.40;;;7.20;37.30;;;;;;4949585;28;115129;-81
2023/03/12 12:26:54;;;;;;;7.60;4.18;;;7.20;38.40;;;;;;4956919;28;114898;-80
2023/03/12 12:30:19;;;;;;;8.13;4.33;;;7.20;37.90;;;;;;4976622;28;114865;-80
2023/03/12 12:33:21;;;;;;;9.45;5.28;;;7.20;38.40;;;;;;4986646;28;116861;-81
2023/03/12 12:35:48;;;;;;;7.72;4.53;;;7.20;39.10;;;;;;4985266;28;117389;-81
2023/03/12 12:38:34;;;;;;;9.90;4.85;;;7.20;39.10;;;;;;4957162;28;115924;-80
2023/03/12 12:41:27;;;;;;;5.78;3.75;;;7.20;38.80;;;;;;4986574;28;114516;-80
2023/03/12 12:44:13;;;;;;;6.57;4.10;;;7.10;38.70;;;;;;4970463;28;114547;-80
2023/03/12 12:46:49;;;;;;;5.75;4.00;;;7.20;39.00;;;;;;4968754;28;115223;-80
2023/03/12 12:49:49;;;;;;;6.47;3.95;;;7.10;38.70;;;;;;4953327;28;114696;-80
2023/03/12 12:52:19;;;;;;;6.53;4.50;;;7.10;38.90;;;;;;4985630;28;114480;-81
2023/03/12 12:55:20;;;;;;;7.22;4.70;;;7.00;39.20;;;;;;4979042;28;114747;-81
2023/03/12 12:58:26;;;;;;;6.90;4.07;;;7.00;39.30;;;;;;4986267;28;115621;-81
2023/03/12 13:01:00;;;;;;;8.20;4.43;;;6.90;39.40;;;;;;4972594;28;114652;-81
2023/03/12 13:03:29;;;;;;;6.75;4.35;;;6.90;40.10;;;;;;4987209;28;114719;-80
2023/03/12 13:06:01;;;;;;;6.13;3.92;;;6.90;39.60;;;;;;4982472;28;116259;-80
2023/03/12 13:08:41;;;;;;;6.10;3.85;;;6.90;39.10;;;;;;4971195;28;115432;-80
2023/03/12 13:11:14;;;;;;;7.53;4.30;;;6.90;39.90;;;;;;4971893;28;116576;-80